Terminal Aerodrome Forecast
Issued by NWS

Home | Current Version | Previous Version | Graphics & Text | Print | Product List | Glossary On
Versions: 1 2 3 4 5 6 7 8 9 10 11 12 13 14 15 16 17 18 19 20
000
FTUS43 KTOP 132327
TAFMHK
TAF
KMHK 132327Z 1400/1424 VRB03KT P6SM BKN050
     FM140500 16005KT 3SM -SN OVC035
     FM141200 20007KT P6SM BKN040
     FM141900 24005KT P6SM FEW040=

USA.gov is the U.S. government's official web portal to all federal, state and local government web resources and services.